Uega, Russia
Current Conditions -  °F | °C
As of 1:00 AM on Thursday 23 Oct 2014 (Local Time) from UHMM Reporting Station
Overcast Overcast  
Wind Chill: 11°   Ceiling: 3300
Heat Index: 18°   Visibility: 6mi
Dew Point: 16°   Wind: 4mph
Humidity: 93%   Direction: 100°E
Pressure: 29.38"   Gusts: NA
Location:  60.73°N, 142.75°E
Report Text: UHMM 221500Z 10002MPS 9999 OVC033CB M08/M09 Q0995 RMK QFE732
Loading
Personal Weather Stations






























Interactive Weather Map
Tropical Storm Tracking
New forecast layout! Learn more

10-Day Weather Forecast

Advertisements
Track Severe Weather on mobile